sensor_id;sensor_type;location;lat;lon;timestamp;P1;durP1;ratioP1;P2;durP2;ratioP2
77148;SDS011;66122;47.130;16.844;2023-07-28T00:08:04;0.60;;;0.53;;
77148;SDS011;66122;47.130;16.844;2023-07-28T00:18:07;0.30;;;0.10;;
77148;SDS011;66122;47.130;16.844;2023-07-28T00:28:09;0.53;;;0.47;;
77148;SDS011;66122;47.130;16.844;2023-07-28T00:38:12;0.30;;;0.20;;
77148;SDS011;66122;47.130;16.844;2023-07-28T00:48:14;0.50;;;0.40;;
77148;SDS011;66122;47.130;16.844;2023-07-28T00:58:19;0.43;;;0.40;;
77148;SDS011;66122;47.130;16.844;2023-07-28T01:08:25;0.30;;;0.10;;
77148;SDS011;66122;47.130;16.844;2023-07-28T01:18:48;0.30;;;0.10;;
77148;SDS011;66122;47.130;16.844;2023-07-28T01:28:51;0.50;;;0.47;;
77148;SDS011;66122;47.130;16.844;2023-07-28T01:38:55;0.60;;;0.55;;
77148;SDS011;66122;47.130;16.844;2023-07-28T01:48:57;0.60;;;0.53;;
77148;SDS011;66122;47.130;16.844;2023-07-28T01:59:00;0.30;;;0.20;;
77148;SDS011;66122;47.130;16.844;2023-07-28T02:09:06;0.40;;;0.30;;
77148;SDS011;66122;47.130;16.844;2023-07-28T02:19:08;0.30;;;0.20;;
77148;SDS011;66122;47.130;16.844;2023-07-28T02:29:11;0.30;;;0.20;;
77148;SDS011;66122;47.130;16.844;2023-07-28T02:39:14;0.30;;;0.20;;
77148;SDS011;66122;47.130;16.844;2023-07-28T02:49:16;0.40;;;0.30;;
77148;SDS011;66122;47.130;16.844;2023-07-28T02:59:19;0.40;;;0.30;;
77148;SDS011;66122;47.130;16.844;2023-07-28T03:09:22;1.17;;;0.80;;
77148;SDS011;66122;47.130;16.844;2023-07-28T03:19:33;0.50;;;0.38;;
77148;SDS011;66122;47.130;16.844;2023-07-28T03:29:36;0.50;;;0.40;;
77148;SDS011;66122;47.130;16.844;2023-07-28T03:39:39;0.40;;;0.30;;
77148;SDS011;66122;47.130;16.844;2023-07-28T03:49:42;0.70;;;0.50;;
77148;SDS011;66122;47.130;16.844;2023-07-28T03:59:45;0.40;;;0.30;;
77148;SDS011;66122;47.130;16.844;2023-07-28T04:09:47;0.40;;;0.30;;
77148;SDS011;66122;47.130;16.844;2023-07-28T04:19:50;0.43;;;0.40;;
77148;SDS011;66122;47.130;16.844;2023-07-28T04:29:53;0.60;;;0.52;;
77148;SDS011;66122;47.130;16.844;2023-07-28T04:39:57;0.50;;;0.40;;
77148;SDS011;66122;47.130;16.844;2023-07-28T04:50:05;0.30;;;0.20;;
77148;SDS011;66122;47.130;16.844;2023-07-28T05:00:27;0.40;;;0.30;;
77148;SDS011;66122;47.130;16.844;2023-07-28T05:10:30;0.77;;;0.70;;
77148;SDS011;66122;47.130;16.844;2023-07-28T05:20:33;0.60;;;0.50;;
77148;SDS011;66122;47.130;16.844;2023-07-28T05:31:05;0.70;;;0.53;;
77148;SDS011;66122;47.130;16.844;2023-07-28T05:41:09;1.10;;;0.57;;
77148;SDS011;66122;47.130;16.844;2023-07-28T05:51:12;0.60;;;0.40;;
77148;SDS011;66122;47.130;16.844;2023-07-28T06:01:15;0.50;;;0.40;;
77148;SDS011;66122;47.130;16.844;2023-07-28T06:11:53;0.30;;;0.20;;
77148;SDS011;66122;47.130;16.844;2023-07-28T06:21:59;0.90;;;0.50;;
77148;SDS011;66122;47.130;16.844;2023-07-28T06:32:03;0.40;;;0.20;;
77148;SDS011;66122;47.130;16.844;2023-07-28T06:42:07;0.52;;;0.40;;
77148;SDS011;66122;47.130;16.844;2023-07-28T06:52:12;0.70;;;0.70;;
77148;SDS011;66122;47.130;16.844;2023-07-28T07:02:17;0.57;;;0.50;;
77148;SDS011;66122;47.130;16.844;2023-07-28T07:12:20;0.50;;;0.30;;
77148;SDS011;66122;47.130;16.844;2023-07-28T07:22:23;0.52;;;0.38;;
77148;SDS011;66122;47.130;16.844;2023-07-28T07:32:25;0.50;;;0.37;;
77148;SDS011;66122;47.130;16.844;2023-07-28T07:42:30;0.70;;;0.63;;
77148;SDS011;66122;47.130;16.844;2023-07-28T07:52:47;0.70;;;0.57;;
77148;SDS011;66122;47.130;16.844;2023-07-28T08:02:50;0.77;;;0.73;;
77148;SDS011;66122;47.130;16.844;2023-07-28T08:12:53;0.50;;;0.33;;
77148;SDS011;66122;47.130;16.844;2023-07-28T08:22:57;0.45;;;0.30;;
77148;SDS011;66122;47.130;16.844;2023-07-28T08:32:59;1.30;;;1.00;;
77148;SDS011;66122;47.130;16.844;2023-07-28T08:43:02;0.63;;;0.50;;
77148;SDS011;66122;47.130;16.844;2023-07-28T08:53:05;1.50;;;1.40;;
77148;SDS011;66122;47.130;16.844;2023-07-28T09:03:10;0.80;;;0.47;;
77148;SDS011;66122;47.130;16.844;2023-07-28T09:13:14;1.00;;;0.90;;
77148;SDS011;66122;47.130;16.844;2023-07-28T09:23:26;0.77;;;0.70;;
77148;SDS011;66122;47.130;16.844;2023-07-28T09:33:33;0.80;;;0.65;;
77148;SDS011;66122;47.130;16.844;2023-07-28T09:43:38;0.97;;;0.83;;
77148;SDS011;66122;47.130;16.844;2023-07-28T09:53:44;0.70;;;0.60;;
77148;SDS011;66122;47.130;16.844;2023-07-28T10:03:50;1.08;;;1.00;;
77148;SDS011;66122;47.130;16.844;2023-07-28T10:13:53;1.07;;;0.97;;
77148;SDS011;66122;47.130;16.844;2023-07-28T10:23:59;0.73;;;0.70;;
77148;SDS011;66122;47.130;16.844;2023-07-28T10:34:02;1.35;;;0.95;;
77148;SDS011;66122;47.130;16.844;2023-07-28T10:44:05;1.57;;;1.47;;
77148;SDS011;66122;47.130;16.844;2023-07-28T10:54:10;1.13;;;1.03;;
77148;SDS011;66122;47.130;16.844;2023-07-28T11:04:19;0.80;;;0.70;;
77148;SDS011;66122;47.130;16.844;2023-07-28T11:14:22;0.70;;;0.57;;
77148;SDS011;66122;47.130;16.844;2023-07-28T11:24:26;0.70;;;0.60;;
77148;SDS011;66122;47.130;16.844;2023-07-28T11:34:28;1.35;;;1.17;;
77148;SDS011;66122;47.130;16.844;2023-07-28T11:44:37;1.40;;;1.30;;
77148;SDS011;66122;47.130;16.844;2023-07-28T11:54:40;0.87;;;0.80;;
77148;SDS011;66122;47.130;16.844;2023-07-28T12:04:43;1.20;;;1.10;;
77148;SDS011;66122;47.130;16.844;2023-07-28T12:14:52;1.97;;;1.77;;
77148;SDS011;66122;47.130;16.844;2023-07-28T12:24:58;1.17;;;1.07;;
77148;SDS011;66122;47.130;16.844;2023-07-28T12:35:00;1.02;;;0.93;;
77148;SDS011;66122;47.130;16.844;2023-07-28T12:45:16;0.90;;;0.80;;
77148;SDS011;66122;47.130;16.844;2023-07-28T12:55:21;1.10;;;1.00;;
77148;SDS011;66122;47.130;16.844;2023-07-28T13:05:24;1.55;;;1.45;;
77148;SDS011;66122;47.130;16.844;2023-07-28T13:15:26;1.17;;;1.07;;
77148;SDS011;66122;47.130;16.844;2023-07-28T13:25:29;1.87;;;1.77;;
77148;SDS011;66122;47.130;16.844;2023-07-28T13:35:32;1.00;;;0.90;;
77148;SDS011;66122;47.130;16.844;2023-07-28T13:45:34;1.23;;;0.97;;
77148;SDS011;66122;47.130;16.844;2023-07-28T13:55:37;1.87;;;1.77;;
77148;SDS011;66122;47.130;16.844;2023-07-28T14:05:42;4.17;;;1.10;;
77148;SDS011;66122;47.130;16.844;2023-07-28T14:15:46;1.23;;;1.13;;
77148;SDS011;66122;47.130;16.844;2023-07-28T14:25:49;1.58;;;1.48;;
77148;SDS011;66122;47.130;16.844;2023-07-28T14:35:51;1.13;;;1.03;;
77148;SDS011;66122;47.130;16.844;2023-07-28T14:45:54;1.23;;;1.13;;
77148;SDS011;66122;47.130;16.844;2023-07-28T14:55:57;1.10;;;1.00;;
77148;SDS011;66122;47.130;16.844;2023-07-28T15:06:00;2.50;;;1.13;;
77148;SDS011;66122;47.130;16.844;2023-07-28T15:16:05;1.43;;;1.33;;
77148;SDS011;66122;47.130;16.844;2023-07-28T15:26:08;1.10;;;1.00;;
77148;SDS011;66122;47.130;16.844;2023-07-28T15:36:10;1.00;;;0.90;;
77148;SDS011;66122;47.130;16.844;2023-07-28T15:46:13;1.25;;;1.13;;
77148;SDS011;66122;47.130;16.844;2023-07-28T15:56:16;1.20;;;1.10;;
77148;SDS011;66122;47.130;16.844;2023-07-28T16:06:19;1.00;;;0.90;;
77148;SDS011;66122;47.130;16.844;2023-07-28T16:16:21;1.17;;;1.08;;
77148;SDS011;66122;47.130;16.844;2023-07-28T16:26:24;1.10;;;1.00;;
77148;SDS011;66122;47.130;16.844;2023-07-28T16:36:27;0.80;;;0.77;;
77148;SDS011;66122;47.130;16.844;2023-07-28T16:46:29;0.70;;;0.55;;
77148;SDS011;66122;47.130;16.844;2023-07-28T16:56:32;0.70;;;0.40;;
77148;SDS011;66122;47.130;16.844;2023-07-28T17:06:34;0.70;;;0.63;;
77148;SDS011;66122;47.130;16.844;2023-07-28T17:16:37;0.77;;;0.77;;
77148;SDS011;66122;47.130;16.844;2023-07-28T17:26:39;0.80;;;0.70;;
77148;SDS011;66122;47.130;16.844;2023-07-28T17:36:42;1.13;;;0.90;;
77148;SDS011;66122;47.130;16.844;2023-07-28T17:46:45;0.40;;;0.20;;
77148;SDS011;66122;47.130;16.844;2023-07-28T17:56:48;0.63;;;0.60;;
77148;SDS011;66122;47.130;16.844;2023-07-28T18:06:50;0.50;;;0.40;;
77148;SDS011;66122;47.130;16.844;2023-07-28T18:16:53;0.40;;;0.20;;
77148;SDS011;66122;47.130;16.844;2023-07-28T18:26:55;0.57;;;0.47;;
77148;SDS011;66122;47.130;16.844;2023-07-28T18:36:58;0.40;;;0.20;;
77148;SDS011;66122;47.130;16.844;2023-07-28T18:47:01;0.60;;;0.50;;
77148;SDS011;66122;47.130;16.844;2023-07-28T18:57:03;1.33;;;1.03;;
77148;SDS011;66122;47.130;16.844;2023-07-28T19:07:06;0.43;;;0.30;;
77148;SDS011;66122;47.130;16.844;2023-07-28T19:17:09;0.50;;;0.43;;
77148;SDS011;66122;47.130;16.844;2023-07-28T19:27:12;0.70;;;0.60;;
77148;SDS011;66122;47.130;16.844;2023-07-28T19:37:15;0.60;;;0.50;;
77148;SDS011;66122;47.130;16.844;2023-07-28T19:47:18;0.50;;;0.33;;
77148;SDS011;66122;47.130;16.844;2023-07-28T19:57:21;0.73;;;0.67;;
77148;SDS011;66122;47.130;16.844;2023-07-28T20:07:23;0.63;;;0.57;;
77148;SDS011;66122;47.130;16.844;2023-07-28T20:17:26;0.50;;;0.40;;
77148;SDS011;66122;47.130;16.844;2023-07-28T20:27:29;0.47;;;0.30;;
77148;SDS011;66122;47.130;16.844;2023-07-28T20:37:32;0.53;;;0.50;;
77148;SDS011;66122;47.130;16.844;2023-07-28T20:47:35;0.35;;;0.20;;
77148;SDS011;66122;47.130;16.844;2023-07-28T20:57:38;0.53;;;0.43;;
77148;SDS011;66122;47.130;16.844;2023-07-28T21:07:41;0.50;;;0.37;;
77148;SDS011;66122;47.130;16.844;2023-07-28T21:17:45;0.50;;;0.40;;
77148;SDS011;66122;47.130;16.844;2023-07-28T21:27:48;0.47;;;0.37;;
77148;SDS011;66122;47.130;16.844;2023-07-28T21:37:50;0.53;;;0.40;;
77148;SDS011;66122;47.130;16.844;2023-07-28T21:47:53;0.55;;;0.47;;
77148;SDS011;66122;47.130;16.844;2023-07-28T21:57:56;0.60;;;0.57;;
77148;SDS011;66122;47.130;16.844;2023-07-28T22:08:06;0.43;;;0.30;;
77148;SDS011;66122;47.130;16.844;2023-07-28T22:18:11;0.40;;;0.30;;
77148;SDS011;66122;47.130;16.844;2023-07-28T22:28:14;0.30;;;0.20;;
77148;SDS011;66122;47.130;16.844;2023-07-28T22:38:17;0.50;;;0.33;;
77148;SDS011;66122;47.130;16.844;2023-07-28T22:48:20;0.80;;;0.53;;
77148;SDS011;66122;47.130;16.844;2023-07-28T22:58:22;0.57;;;0.30;;
77148;SDS011;66122;47.130;16.844;2023-07-28T23:08:25;0.40;;;0.30;;
77148;SDS011;66122;47.130;16.844;2023-07-28T23:18:28;1.43;;;0.60;;
77148;SDS011;66122;47.130;16.844;2023-07-28T23:28:30;0.50;;;0.35;;
77148;SDS011;66122;47.130;16.844;2023-07-28T23:38:33;0.60;;;0.50;;
77148;SDS011;66122;47.130;16.844;2023-07-28T23:48:35;1.27;;;0.80;;
77148;SDS011;66122;47.130;16.844;2023-07-28T23:58:38;0.47;;;0.30;;
